Time;durP1;ratioP1;P1;durP2;ratioP2;P2;SDS_P1;SDS_P2;PMS_P1;PMS_P2;Temp;Humidity;BMP_temperature;BMP_pressure;BME280_temperature;BME280_humidity;BME280_pressure;Samples;Min_cycle;Max_cycle;Signal;HPM_P1;HPM_P2
2023/06/08 00:00:07;;;;;;;7.32;2.90;;;;;;;;;;5047362;28;20090;-70
2023/06/08 00:02:53;;;;;;;5.28;2.88;;;;;;;;;;5043793;28;20039;-70
2023/06/08 00:05:43;;;;;;;3.30;2.50;;;;;;;;;;5036426;28;20060;-70
2023/06/08 00:08:30;;;;;;;4.90;2.67;;;;;;;;;;5017491;28;20468;-70
2023/06/08 00:11:15;;;;;;;3.80;2.75;;;;;;;;;;5030946;28;20057;-69
2023/06/08 00:14:01;;;;;;;8.35;3.03;;;;;;;;;;5043816;28;20044;-69
2023/06/08 00:16:48;;;;;;;5.43;3.13;;;;;;;;;;5037900;28;20064;-69
2023/06/08 00:19:36;;;;;;;3.67;2.38;;;;;;;;;;5042256;28;20030;-69
2023/06/08 00:22:21;;;;;;;5.32;2.63;;;;;;;;;;5020748;28;20032;-68
2023/06/08 00:25:06;;;;;;;3.67;2.38;;;;;;;;;;5048622;28;20051;-70
2023/06/08 00:27:51;;;;;;;4.63;2.40;;;;;;;;;;5043980;28;20052;-68
2023/06/08 00:30:37;;;;;;;4.38;2.38;;;;;;;;;;5048346;28;20090;-67
2023/06/08 00:33:22;;;;;;;3.85;2.63;;;;;;;;;;5046435;28;20791;-67
2023/06/08 00:36:07;;;;;;;2.85;2.22;;;;;;;;;;5044082;28;20028;-68
2023/06/08 00:38:53;;;;;;;4.72;2.58;;;;;;;;;;5058897;28;20383;-67
2023/06/08 00:41:38;;;;;;;3.10;2.60;;;;;;;;;;5038649;28;20025;-67
2023/06/08 00:44:23;;;;;;;3.33;2.40;;;;;;;;;;5049700;28;20280;-67
2023/06/08 00:47:08;;;;;;;5.10;2.83;;;;;;;;;;5043789;28;20048;-65
2023/06/08 00:49:54;;;;;;;7.40;3.25;;;;;;;;;;5038632;28;20033;-76
2023/06/08 00:52:39;;;;;;;3.95;2.47;;;;;;;;;;5048120;28;20119;-76
2023/06/08 00:55:27;;;;;;;4.03;2.70;;;;;;;;;;5040703;28;20042;-78
2023/06/08 00:58:13;;;;;;;3.42;2.35;;;;;;;;;;5042340;28;20033;-79
2023/06/08 01:01:03;;;;;;;3.53;2.13;;;;;;;;;;5039678;28;20203;-77
2023/06/08 01:03:49;;;;;;;9.02;4.32;;;;;;;;;;5038050;28;20017;-79
2023/06/08 01:06:37;;;;;;;7.13;2.78;;;;;;;;;;5052520;28;20103;-70
2023/06/08 01:09:29;;;;;;;2.78;2.45;;;;;;;;;;5040446;28;20388;-68
2023/06/08 01:12:23;;;;;;;3.97;2.22;;;;;;;;;;5035661;28;20060;-66
2023/06/08 01:15:20;;;;;;;3.30;2.55;;;;;;;;;;5066149;28;20035;-68
2023/06/08 01:18:07;;;;;;;5.22;3.38;;;;;;;;;;5037630;28;20536;-66
2023/06/08 01:21:12;;;;;;;3.90;2.50;;;;;;;;;;5037610;28;20115;-69
2023/06/08 01:24:00;;;;;;;4.55;2.60;;;;;;;;;;5047538;28;21095;-79
2023/06/08 01:26:49;;;;;;;3.55;2.22;;;;;;;;;;5041789;28;20131;-67
2023/06/08 01:29:34;;;;;;;3.55;2.28;;;;;;;;;;5038118;28;20028;-70
2023/06/08 01:32:22;;;;;;;2.83;2.50;;;;;;;;;;5052622;28;20469;-68
2023/06/08 01:35:07;;;;;;;2.72;2.00;;;;;;;;;;5046600;28;20047;-68
2023/06/08 01:37:55;;;;;;;3.35;2.22;;;;;;;;;;5045598;28;20020;-69
2023/06/08 01:40:43;;;;;;;3.75;2.72;;;;;;;;;;5042626;28;20427;-68
2023/06/08 01:43:30;;;;;;;3.78;2.30;;;;;;;;;;5029470;28;20028;-70
2023/06/08 01:46:17;;;;;;;4.68;2.13;;;;;;;;;;5048582;28;20029;-68
2023/06/08 01:49:03;;;;;;;5.07;2.65;;;;;;;;;;5063891;28;20043;-69
2023/06/08 01:51:48;;;;;;;4.00;2.67;;;;;;;;;;5043499;28;20037;-69
2023/06/08 01:54:34;;;;;;;5.43;2.50;;;;;;;;;;5029281;28;20075;-68
2023/06/08 01:57:19;;;;;;;4.35;2.97;;;;;;;;;;5048217;28;20033;-68
2023/06/08 02:00:06;;;;;;;4.20;2.42;;;;;;;;;;5041356;28;20080;-68
2023/06/08 02:02:52;;;;;;;4.85;2.42;;;;;;;;;;5050127;28;20044;-72
2023/06/08 02:05:37;;;;;;;4.32;2.33;;;;;;;;;;5027208;28;20041;-73
2023/06/08 02:08:22;;;;;;;4.53;2.85;;;;;;;;;;5043240;28;20028;-72
2023/06/08 02:11:08;;;;;;;3.22;2.50;;;;;;;;;;5050478;28;20116;-73
2023/06/08 02:13:53;;;;;;;4.20;2.88;;;;;;;;;;5049651;28;20021;-74
2023/06/08 02:16:38;;;;;;;3.72;2.35;;;;;;;;;;5043695;28;20041;-73
2023/06/08 02:19:24;;;;;;;4.40;2.42;;;;;;;;;;5041686;28;20404;-74
2023/06/08 02:22:09;;;;;;;2.95;2.20;;;;;;;;;;5061351;28;20040;-71
2023/06/08 02:24:54;;;;;;;3.72;2.80;;;;;;;;;;5054505;28;20071;-71
2023/06/08 02:27:43;;;;;;;5.00;2.50;;;;;;;;;;5056660;28;20508;-72
2023/06/08 02:30:28;;;;;;;3.93;2.60;;;;;;;;;;5035770;28;20032;-71
2023/06/08 02:33:14;;;;;;;2.88;2.35;;;;;;;;;;5029754;28;20275;-71
2023/06/08 02:35:59;;;;;;;5.70;2.50;;;;;;;;;;5043128;28;20029;-72
2023/06/08 02:38:44;;;;;;;5.05;2.50;;;;;;;;;;5055606;28;20029;-74
2023/06/08 02:41:29;;;;;;;5.22;2.53;;;;;;;;;;5039580;28;20045;-72
2023/06/08 02:44:15;;;;;;;3.58;2.88;;;;;;;;;;5035709;28;20056;-74
2023/06/08 02:47:00;;;;;;;2.92;2.42;;;;;;;;;;5045572;28;20495;-70
2023/06/08 02:49:45;;;;;;;3.60;2.60;;;;;;;;;;5047176;28;20033;-69
2023/06/08 02:52:30;;;;;;;3.65;2.80;;;;;;;;;;5048348;28;20028;-71
2023/06/08 02:55:16;;;;;;;3.58;2.58;;;;;;;;;;5034504;28;20411;-70
2023/06/08 02:58:02;;;;;;;5.00;2.92;;;;;;;;;;5033220;28;20040;-70
2023/06/08 03:00:53;;;;;;;3.00;2.22;;;;;;;;;;5041563;28;20450;-69
2023/06/08 03:03:38;;;;;;;3.05;2.20;;;;;;;;;;5051761;28;20029;-68
2023/06/08 03:06:26;;;;;;;3.00;2.33;;;;;;;;;;5032282;28;20040;-70
2023/06/08 03:09:12;;;;;;;3.92;2.08;;;;;;;;;;5031533;28;20499;-68
2023/06/08 03:11:57;;;;;;;3.88;2.72;;;;;;;;;;5059337;28;20032;-68
2023/06/08 03:14:42;;;;;;;3.53;2.20;;;;;;;;;;5036132;28;20498;-78
2023/06/08 03:17:27;;;;;;;4.15;2.70;;;;;;;;;;5046817;28;20072;-74
2023/06/08 03:20:13;;;;;;;4.20;2.70;;;;;;;;;;5041067;28;20494;-73
2023/06/08 03:22:58;;;;;;;3.65;2.80;;;;;;;;;;5037717;28;20469;-74
2023/06/08 03:25:44;;;;;;;3.65;2.40;;;;;;;;;;5040567;28;20063;-74
2023/06/08 03:28:29;;;;;;;2.50;2.22;;;;;;;;;;5047697;28;20580;-73
2023/06/08 03:31:14;;;;;;;3.22;2.40;;;;;;;;;;5031622;28;20037;-73
2023/06/08 03:34:00;;;;;;;6.65;2.60;;;;;;;;;;5032345;28;20033;-72
2023/06/08 03:36:45;;;;;;;6.00;2.72;;;;;;;;;;5040612;28;20036;-68
2023/06/08 03:39:30;;;;;;;3.22;2.58;;;;;;;;;;5037030;28;20025;-69
2023/06/08 03:42:15;;;;;;;3.85;2.58;;;;;;;;;;5044036;28;20098;-67
2023/06/08 03:45:00;;;;;;;3.85;2.88;;;;;;;;;;5034997;28;20098;-70
2023/06/08 03:47:46;;;;;;;5.30;2.58;;;;;;;;;;5045123;28;20056;-67
2023/06/08 03:50:31;;;;;;;4.82;2.45;;;;;;;;;;5039177;28;20064;-69
2023/06/08 03:53:16;;;;;;;4.90;2.80;;;;;;;;;;5038499;28;20079;-71
2023/06/08 03:56:02;;;;;;;7.00;2.58;;;;;;;;;;5028331;28;20071;-69
2023/06/08 03:58:48;;;;;;;3.85;2.58;;;;;;;;;;5039204;28;20502;-69
2023/06/08 04:01:35;;;;;;;4.50;2.60;;;;;;;;;;5042268;28;20072;-69
2023/06/08 04:04:23;;;;;;;4.72;3.08;;;;;;;;;;5046301;28;20122;-67
2023/06/08 04:07:09;;;;;;;3.53;2.90;;;;;;;;;;5031027;28;20041;-67
2023/06/08 04:09:55;;;;;;;4.60;2.90;;;;;;;;;;5035052;28;20117;-72
2023/06/08 04:12:40;;;;;;;3.42;2.50;;;;;;;;;;5047209;28;20639;-77
2023/06/08 04:15:25;;;;;;;3.63;2.90;;;;;;;;;;5038363;28;20029;-79
2023/06/08 04:18:11;;;;;;;3.72;2.55;;;;;;;;;;5046479;28;20068;-78
2023/06/08 04:20:57;;;;;;;4.72;2.83;;;;;;;;;;5046023;28;20042;-78
2023/06/08 04:23:42;;;;;;;4.20;2.50;;;;;;;;;;5058830;28;20032;-76
2023/06/08 04:26:28;;;;;;;3.55;2.67;;;;;;;;;;5040034;28;20044;-77
2023/06/08 04:29:13;;;;;;;4.55;3.38;;;;;;;;;;5043771;28;20036;-76
2023/06/08 04:31:59;;;;;;;4.68;2.88;;;;;;;;;;5039432;28;20037;-70
2023/06/08 04:34:45;;;;;;;3.30;2.67;;;;;;;;;;5050539;28;20487;-71
2023/06/08 04:37:30;;;;;;;4.80;3.38;;;;;;;;;;5051467;28;20159;-70
2023/06/08 04:40:16;;;;;;;6.28;2.67;;;;;;;;;;5056208;28;20552;-70
2023/06/08 04:43:02;;;;;;;4.78;2.97;;;;;;;;;;5022730;28;20060;-71
2023/06/08 04:45:49;;;;;;;4.13;2.80;;;;;;;;;;5042809;28;20528;-71
2023/06/08 04:48:37;;;;;;;3.75;2.88;;;;;;;;;;5040405;28;20048;-71
2023/06/08 04:51:29;;;;;;;6.35;3.58;;;;;;;;;;5042810;28;20086;-68
2023/06/08 04:54:15;;;;;;;3.53;2.42;;;;;;;;;;5039833;28;20127;-69
2023/06/08 04:57:00;;;;;;;2.97;2.58;;;;;;;;;;5028308;28;20029;-68
2023/06/08 04:59:46;;;;;;;4.05;2.80;;;;;;;;;;5030774;28;20379;-69
2023/06/08 05:02:31;;;;;;;4.55;3.08;;;;;;;;;;5049708;28;20041;-69
2023/06/08 05:05:16;;;;;;;3.38;2.60;;;;;;;;;;5043392;28;20048;-72
2023/06/08 05:08:01;;;;;;;6.68;2.60;;;;;;;;;;5029786;28;20036;-72
2023/06/08 05:10:46;;;;;;;4.55;2.85;;;;;;;;;;5050806;28;20091;-73
2023/06/08 05:13:32;;;;;;;4.32;2.47;;;;;;;;;;5042527;28;20029;-72
2023/06/08 05:16:17;;;;;;;4.03;2.50;;;;;;;;;;5033092;28;20449;-72
2023/06/08 05:19:03;;;;;;;3.53;2.45;;;;;;;;;;5030093;28;20033;-75
2023/06/08 05:21:48;;;;;;;3.13;2.50;;;;;;;;;;5030405;28;20466;-74
2023/06/08 05:24:33;;;;;;;3.88;2.65;;;;;;;;;;5043323;28;20029;-71
2023/06/08 05:27:18;;;;;;;4.97;2.78;;;;;;;;;;5038830;28;20485;-72
2023/06/08 05:30:04;;;;;;;2.40;2.20;;;;;;;;;;5042414;28;20360;-72
2023/06/08 05:32:49;;;;;;;3.42;2.35;;;;;;;;;;5033966;28;20029;-71
2023/06/08 05:35:34;;;;;;;3.20;2.42;;;;;;;;;;5035538;28;20082;-72
2023/06/08 05:38:20;;;;;;;4.97;3.00;;;;;;;;;;5040697;28;20041;-70
2023/06/08 05:41:06;;;;;;;5.65;2.47;;;;;;;;;;5046644;28;20041;-66
2023/06/08 05:43:51;;;;;;;3.75;2.50;;;;;;;;;;5031197;28;20476;-70
2023/06/08 05:46:36;;;;;;;4.10;2.40;;;;;;;;;;5028530;28;20033;-78
2023/06/08 05:49:21;;;;;;;5.90;3.15;;;;;;;;;;5048578;28;20086;-77
2023/06/08 05:52:07;;;;;;;5.97;3.53;;;;;;;;;;5046686;28;20134;-75
2023/06/08 05:54:52;;;;;;;5.43;2.92;;;;;;;;;;5041772;28;20037;-75
2023/06/08 05:57:37;;;;;;;3.75;2.80;;;;;;;;;;5033853;28;20031;-74
2023/06/08 06:00:23;;;;;;;5.75;3.15;;;;;;;;;;5057816;28;20513;-72
2023/06/08 06:03:08;;;;;;;6.13;3.00;;;;;;;;;;5051130;28;20472;-66
2023/06/08 06:05:53;;;;;;;4.65;3.13;;;;;;;;;;5046224;28;20528;-65
2023/06/08 06:08:38;;;;;;;6.88;2.90;;;;;;;;;;5037355;28;20108;-66
2023/06/08 06:11:25;;;;;;;5.07;2.90;;;;;;;;;;5044118;28;20053;-66
2023/06/08 06:14:10;;;;;;;6.97;3.10;;;;;;;;;;5045524;28;20033;-64
2023/06/08 06:16:56;;;;;;;7.38;3.22;;;;;;;;;;5042917;28;20599;-65
2023/06/08 06:19:41;;;;;;;6.72;3.03;;;;;;;;;;5032976;28;20115;-66
2023/06/08 06:22:26;;;;;;;3.70;2.58;;;;;;;;;;5040384;28;20051;-67
2023/06/08 06:25:11;;;;;;;6.47;3.03;;;;;;;;;;5030191;28;20041;-67
2023/06/08 06:27:57;;;;;;;4.28;2.90;;;;;;;;;;5048558;28;20354;-69
2023/06/08 06:30:42;;;;;;;3.00;2.58;;;;;;;;;;5059488;28;20025;-68
2023/06/08 06:33:27;;;;;;;2.55;2.22;;;;;;;;;;5028315;28;20172;-67
2023/06/08 06:36:12;;;;;;;5.18;3.55;;;;;;;;;;5025015;28;20488;-73
2023/06/08 06:38:57;;;;;;;5.43;3.67;;;;;;;;;;5042300;28;20036;-69
2023/06/08 06:41:43;;;;;;;6.50;3.17;;;;;;;;;;5046055;28;20036;-77
2023/06/08 06:44:28;;;;;;;5.53;3.45;;;;;;;;;;5040553;28;20345;-76
2023/06/08 06:47:13;;;;;;;6.30;2.85;;;;;;;;;;5037585;28;20028;-76
2023/06/08 06:49:58;;;;;;;5.38;3.97;;;;;;;;;;5042844;28;20091;-76
2023/06/08 06:52:44;;;;;;;5.43;3.38;;;;;;;;;;5044512;28;20104;-76
2023/06/08 06:55:34;;;;;;;6.88;3.58;;;;;;;;;;5047859;28;20076;-66
2023/06/08 06:58:20;;;;;;;5.10;3.40;;;;;;;;;;5047453;28;20454;-70
2023/06/08 07:01:06;;;;;;;7.85;4.32;;;;;;;;;;5028932;28;20029;-71
2023/06/08 07:03:52;;;;;;;7.28;3.75;;;;;;;;;;5034181;28;20095;-73
2023/06/08 07:06:37;;;;;;;7.43;3.92;;;;;;;;;;5049501;28;20040;-70
2023/06/08 07:09:23;;;;;;;5.28;3.83;;;;;;;;;;5052091;28;20036;-72
2023/06/08 07:12:09;;;;;;;6.60;3.55;;;;;;;;;;5037791;28;20480;-70
2023/06/08 07:14:54;;;;;;;6.40;3.70;;;;;;;;;;5059049;28;20036;-70
2023/06/08 07:17:40;;;;;;;4.90;3.60;;;;;;;;;;5041927;28;20482;-64
2023/06/08 07:20:25;;;;;;;5.90;3.42;;;;;;;;;;5035344;28;20029;-64
2023/06/08 07:23:10;;;;;;;5.53;3.42;;;;;;;;;;5056242;28;20036;-63
2023/06/08 07:25:55;;;;;;;4.45;3.35;;;;;;;;;;5042981;28;20594;-65
2023/06/08 07:28:41;;;;;;;4.75;3.55;;;;;;;;;;5045283;28;20515;-65
2023/06/08 07:31:29;;;;;;;4.97;3.53;;;;;;;;;;5055742;28;20802;-70
2023/06/08 07:34:14;;;;;;;4.07;3.03;;;;;;;;;;5031485;28;20036;-66
2023/06/08 07:37:00;;;;;;;6.68;3.38;;;;;;;;;;5041797;28;20048;-63
2023/06/08 07:39:46;;;;;;;4.57;3.35;;;;;;;;;;5054520;28;20044;-64
2023/06/08 07:42:31;;;;;;;5.65;3.20;;;;;;;;;;5051285;28;20078;-63
2023/06/08 07:45:16;;;;;;;4.78;3.17;;;;;;;;;;5034251;28;20026;-65
2023/06/08 07:48:01;;;;;;;5.85;3.35;;;;;;;;;;5034135;28;20029;-65
2023/06/08 07:50:46;;;;;;;3.65;2.92;;;;;;;;;;5046475;28;20033;-71
2023/06/08 07:53:38;;;;;;;4.53;3.20;;;;;;;;;;5059386;28;20479;-67
2023/06/08 07:56:23;;;;;;;4.70;2.90;;;;;;;;;;5031277;28;20045;-69
2023/06/08 07:59:08;;;;;;;7.93;3.15;;;;;;;;;;5044880;28;20033;-69
2023/06/08 08:01:53;;;;;;;4.80;2.97;;;;;;;;;;5034933;28;20041;-66
2023/06/08 08:04:39;;;;;;;4.85;3.00;;;;;;;;;;5060354;28;20032;-66
2023/06/08 08:07:24;;;;;;;6.50;3.35;;;;;;;;;;5043044;28;20052;-64
2023/06/08 08:10:10;;;;;;;4.28;2.58;;;;;;;;;;5041644;28;20032;-68
2023/06/08 08:12:55;;;;;;;5.97;2.88;;;;;;;;;;5024998;28;20031;-70
2023/06/08 08:15:40;;;;;;;3.63;2.40;;;;;;;;;;5046247;28;20102;-72
2023/06/08 08:18:25;;;;;;;4.43;3.10;;;;;;;;;;5042583;28;20033;-70
2023/06/08 08:21:11;;;;;;;3.90;3.00;;;;;;;;;;5017523;28;20583;-70
2023/06/08 08:23:56;;;;;;;4.47;3.05;;;;;;;;;;5034536;28;20028;-69
2023/06/08 08:26:41;;;;;;;5.07;3.50;;;;;;;;;;5042890;28;20137;-67
2023/06/08 08:29:26;;;;;;;6.50;3.42;;;;;;;;;;5054501;28;20037;-70
2023/06/08 08:32:12;;;;;;;5.28;3.97;;;;;;;;;;5063715;28;20047;-78
2023/06/08 08:34:57;;;;;;;5.82;3.92;;;;;;;;;;5028524;28;20148;-75
2023/06/08 08:37:42;;;;;;;7.85;3.50;;;;;;;;;;5025332;28;20069;-78
2023/06/08 08:40:27;;;;;;;5.90;3.35;;;;;;;;;;5042060;28;20079;-77
2023/06/08 08:43:16;;;;;;;6.57;3.40;;;;;;;;;;5053311;28;20032;-78
2023/06/08 08:46:03;;;;;;;4.47;3.28;;;;;;;;;;5038695;28;20036;-67
2023/06/08 08:48:57;;;;;;;6.55;3.97;;;;;;;;;;5039793;28;20048;-68
2023/06/08 08:51:49;;;;;;;6.55;3.78;;;;;;;;;;5054513;28;20042;-68
2023/06/08 08:54:36;;;;;;;6.35;3.40;;;;;;;;;;5059809;28;20051;-67
2023/06/08 08:57:21;;;;;;;9.23;3.70;;;;;;;;;;5031999;28;20087;-68
2023/06/08 09:00:08;;;;;;;4.30;2.60;;;;;;;;;;5037094;28;20033;-70
2023/06/08 09:02:53;;;;;;;6.38;3.80;;;;;;;;;;5054798;28;20463;-69
2023/06/08 09:05:38;;;;;;;4.22;3.13;;;;;;;;;;5035810;28;20036;-70
2023/06/08 09:08:25;;;;;;;5.18;3.42;;;;;;;;;;5054901;28;20029;-70
2023/06/08 09:11:10;;;;;;;4.85;2.70;;;;;;;;;;5040282;28;20037;-69
2023/06/08 09:14:05;;;;;;;4.00;3.10;;;;;;;;;;5048809;28;20067;-72
2023/06/08 09:16:51;;;;;;;5.05;3.65;;;;;;;;;;5045666;28;20037;-71
2023/06/08 09:19:36;;;;;;;5.60;3.50;;;;;;;;;;5048100;28;20378;-71
2023/06/08 09:22:28;;;;;;;7.90;3.67;;;;;;;;;;5036742;28;20427;-65
2023/06/08 09:25:13;;;;;;;4.05;3.40;;;;;;;;;;5047179;28;20033;-70
2023/06/08 09:28:15;;;;;;;7.32;3.83;;;;;;;;;;5061277;28;20086;-68
2023/06/08 09:31:08;;;;;;;4.90;3.40;;;;;;;;;;5045202;28;20480;-66
2023/06/08 09:34:03;;;;;;;4.25;3.28;;;;;;;;;;5052023;28;20479;-67
2023/06/08 09:36:49;;;;;;;10.20;3.88;;;;;;;;;;5070534;28;20051;-67
2023/06/08 09:39:39;;;;;;;4.13;3.22;;;;;;;;;;5049351;28;20037;-67
2023/06/08 09:42:43;;;;;;;4.95;3.38;;;;;;;;;;5046800;28;20108;-75
2023/06/08 09:45:28;;;;;;;4.85;3.58;;;;;;;;;;5052024;28;20037;-68
2023/06/08 09:48:14;;;;;;;9.07;3.33;;;;;;;;;;5041667;28;20033;-67
2023/06/08 09:51:02;;;;;;;5.38;4.05;;;;;;;;;;5056709;28;20062;-67
2023/06/08 09:53:49;;;;;;;4.43;3.00;;;;;;;;;;5035835;28;20036;-66
2023/06/08 09:56:36;;;;;;;4.90;3.03;;;;;;;;;;5038485;28;20044;-67
2023/06/08 09:59:30;;;;;;;5.65;3.00;;;;;;;;;;5058972;28;20040;-72
2023/06/08 10:02:24;;;;;;;4.68;3.03;;;;;;;;;;5053642;28;20107;-66
2023/06/08 10:05:13;;;;;;;4.00;2.65;;;;;;;;;;5044270;28;20549;-66
2023/06/08 10:07:59;;;;;;;4.80;3.05;;;;;;;;;;5062022;28;20036;-68
2023/06/08 10:10:45;;;;;;;4.53;3.20;;;;;;;;;;5039124;28;20480;-68
2023/06/08 10:13:31;;;;;;;4.45;2.80;;;;;;;;;;5052036;28;20084;-66
2023/06/08 10:16:17;;;;;;;3.55;2.80;;;;;;;;;;5033690;28;20377;-67
2023/06/08 10:19:02;;;;;;;4.93;3.08;;;;;;;;;;5051560;28;20451;-66
2023/06/08 10:21:48;;;;;;;6.38;3.22;;;;;;;;;;5043820;28;20036;-72
2023/06/08 10:24:34;;;;;;;8.23;3.50;;;;;;;;;;5050736;28;20039;-72
2023/06/08 10:27:23;;;;;;;7.40;3.53;;;;;;;;;;5047217;28;20037;-72
2023/06/08 10:30:08;;;;;;;4.33;3.13;;;;;;;;;;5034566;28;20521;-71
2023/06/08 10:32:55;;;;;;;4.70;3.45;;;;;;;;;;5051799;28;20044;-72
2023/06/08 10:35:41;;;;;;;4.05;3.20;;;;;;;;;;5067547;28;20024;-71
2023/06/08 10:38:26;;;;;;;11.43;3.45;;;;;;;;;;5043290;28;20037;-68
2023/06/08 10:41:11;;;;;;;5.18;3.33;;;;;;;;;;5038728;28;20200;-65
2023/06/08 10:44:00;;;;;;;5.30;3.28;;;;;;;;;;5032362;28;20030;-67
2023/06/08 10:46:45;;;;;;;4.22;3.03;;;;;;;;;;5058814;28;20067;-67
2023/06/08 10:49:31;;;;;;;7.35;3.45;;;;;;;;;;5039026;28;20381;-67
2023/06/08 10:52:17;;;;;;;3.80;3.20;;;;;;;;;;5030809;28;20056;-67
2023/06/08 10:55:13;;;;;;;10.07;3.38;;;;;;;;;;5048822;28;20044;-67
2023/06/08 10:58:06;;;;;;;8.00;4.20;;;;;;;;;;5050280;28;20530;-71
2023/06/08 11:00:52;;;;;;;5.25;3.78;;;;;;;;;;5040542;28;20047;-71
2023/06/08 11:03:45;;;;;;;5.15;3.70;;;;;;;;;;5037543;28;20047;-70
2023/06/08 11:06:32;;;;;;;4.93;3.63;;;;;;;;;;5041307;28;20086;-71
2023/06/08 11:09:17;;;;;;;6.10;3.55;;;;;;;;;;5050872;28;20152;-73
2023/06/08 11:12:03;;;;;;;5.78;3.90;;;;;;;;;;5042887;28;20033;-72
2023/06/08 11:14:48;;;;;;;6.53;3.80;;;;;;;;;;5028241;28;20151;-67
2023/06/08 11:17:39;;;;;;;8.95;3.72;;;;;;;;;;5042297;28;20037;-71
2023/06/08 11:20:24;;;;;;;7.05;4.22;;;;;;;;;;5052972;28;20036;-72
2023/06/08 11:23:11;;;;;;;5.00;3.50;;;;;;;;;;5052555;28;20079;-72
2023/06/08 11:25:56;;;;;;;5.15;3.90;;;;;;;;;;5024140;28;20277;-70
2023/06/08 11:28:43;;;;;;;5.35;3.50;;;;;;;;;;5030881;28;20028;-73
2023/06/08 11:31:33;;;;;;;4.93;3.70;;;;;;;;;;5049595;28;20037;-68
2023/06/08 11:34:19;;;;;;;4.75;3.80;;;;;;;;;;5042837;28;20100;-70
2023/06/08 11:37:04;;;;;;;6.70;3.85;;;;;;;;;;5017962;28;20029;-67
2023/06/08 11:39:50;;;;;;;5.57;3.85;;;;;;;;;;5057316;28;20036;-69
2023/06/08 11:42:38;;;;;;;8.32;4.00;;;;;;;;;;5044320;28;20128;-68
2023/06/08 11:45:24;;;;;;;4.72;3.80;;;;;;;;;;5045382;28;20039;-69
2023/06/08 11:48:09;;;;;;;5.45;3.88;;;;;;;;;;5046281;28;20068;-69
2023/06/08 11:50:55;;;;;;;5.82;3.97;;;;;;;;;;5039587;28;20067;-72
2023/06/08 11:53:40;;;;;;;5.10;3.92;;;;;;;;;;5027862;28;20132;-74
2023/06/08 11:56:29;;;;;;;4.85;4.05;;;;;;;;;;5038204;28;20050;-77
2023/06/08 11:59:15;;;;;;;5.90;3.95;;;;;;;;;;5050509;28;20115;-74
2023/06/08 12:02:00;;;;;;;5.68;4.25;;;;;;;;;;5031485;28;20036;-75
2023/06/08 12:04:46;;;;;;;5.72;4.00;;;;;;;;;;5033340;28;20120;-75
2023/06/08 12:07:34;;;;;;;10.48;5.40;;;;;;;;;;5046547;28;20446;-72
2023/06/08 12:10:19;;;;;;;6.50;3.90;;;;;;;;;;5044970;28;20047;-67
2023/06/08 12:13:06;;;;;;;7.53;4.13;;;;;;;;;;5027350;28;20033;-72
2023/06/08 12:15:52;;;;;;;5.43;3.90;;;;;;;;;;5032287;28;20033;-72
2023/06/08 12:18:38;;;;;;;5.40;4.00;;;;;;;;;;5045345;28;20033;-72
2023/06/08 12:21:24;;;;;;;7.13;3.88;;;;;;;;;;5060703;28;20041;-73
2023/06/08 12:24:10;;;;;;;5.65;3.65;;;;;;;;;;5047953;28;20095;-72
2023/06/08 12:26:55;;;;;;;6.28;3.83;;;;;;;;;;5048043;28;20527;-71
2023/06/08 12:29:40;;;;;;;5.40;3.65;;;;;;;;;;5043387;28;20107;-66
2023/06/08 12:32:26;;;;;;;6.75;4.53;;;;;;;;;;5044705;28;20037;-67
2023/06/08 12:35:11;;;;;;;7.22;3.60;;;;;;;;;;5059837;28;20105;-66
2023/06/08 12:37:56;;;;;;;7.40;3.40;;;;;;;;;;5031753;28;20525;-67
2023/06/08 12:40:47;;;;;;;6.75;3.72;;;;;;;;;;5049639;28;20368;-67
2023/06/08 12:43:32;;;;;;;13.18;4.03;;;;;;;;;;5048190;28;20036;-66
2023/06/08 12:46:21;;;;;;;7.07;3.65;;;;;;;;;;5047061;28;20040;-72
2023/06/08 12:49:06;;;;;;;;;;;;;;;;;;5047706;28;20048;-72
2023/06/08 12:51:53;;;;;;;12.00;4.85;;;;;;;;;;5031886;28;19931;-73
2023/06/08 12:54:38;;;;;;;12.07;4.88;;;;;;;;;;5045639;28;20446;-71
2023/06/08 12:57:24;;;;;;;9.77;4.00;;;;;;;;;;5050161;28;20034;-71
2023/06/08 13:00:10;;;;;;;12.60;4.80;;;;;;;;;;5051257;28;20048;-71
2023/06/08 13:02:57;;;;;;;12.30;4.40;;;;;;;;;;5040279;28;20127;-69
2023/06/08 13:05:42;;;;;;;6.88;4.07;;;;;;;;;;5036251;28;20051;-65
2023/06/08 13:08:27;;;;;;;14.27;5.53;;;;;;;;;;5053203;28;20039;-65
2023/06/08 13:11:12;;;;;;;14.13;4.95;;;;;;;;;;5046961;28;20079;-65
2023/06/08 13:13:58;;;;;;;16.95;6.47;;;;;;;;;;5024406;28;20029;-64
2023/06/08 13:16:44;;;;;;;19.63;5.72;;;;;;;;;;5035671;28;20491;-63
2023/06/08 13:19:29;;;;;;;10.18;5.10;;;;;;;;;;5048872;28;20039;-65
2023/06/08 13:22:14;;;;;;;10.43;5.90;;;;;;;;;;5059650;28;20475;-69
2023/06/08 13:25:00;;;;;;;9.75;5.07;;;;;;;;;;5038379;28;20036;-68
2023/06/08 13:27:45;;;;;;;12.02;5.63;;;;;;;;;;5054559;28;20035;-71
2023/06/08 13:30:30;;;;;;;12.27;6.40;;;;;;;;;;5047552;28;20033;-70
2023/06/08 13:33:15;;;;;;;10.85;5.38;;;;;;;;;;5047891;28;20174;-71
2023/06/08 13:36:01;;;;;;;11.57;4.90;;;;;;;;;;5038342;28;20066;-69
2023/06/08 13:38:46;;;;;;;10.75;5.90;;;;;;;;;;5051457;28;20040;-70
2023/06/08 13:41:35;;;;;;;10.15;5.28;;;;;;;;;;5046281;28;21004;-65
2023/06/08 13:44:20;;;;;;;15.73;6.33;;;;;;;;;;5072179;28;20162;-65
2023/06/08 13:47:05;;;;;;;9.48;5.40;;;;;;;;;;5039826;28;20421;-67
2023/06/08 13:49:51;;;;;;;15.93;6.25;;;;;;;;;;5044652;28;20571;-66
2023/06/08 13:52:37;;;;;;;8.65;4.97;;;;;;;;;;5035581;28;20025;-67
2023/06/08 13:55:23;;;;;;;9.82;5.75;;;;;;;;;;5046554;28;20037;-64
2023/06/08 13:58:08;;;;;;;12.38;5.28;;;;;;;;;;5057378;28;20358;-71
2023/06/08 14:00:53;;;;;;;8.35;4.65;;;;;;;;;;5051838;28;20404;-71
2023/06/08 14:03:38;;;;;;;13.55;5.60;;;;;;;;;;5036377;28;20037;-72
2023/06/08 14:06:24;;;;;;;10.75;5.10;;;;;;;;;;5048544;28;20033;-71
2023/06/08 14:09:10;;;;;;;9.57;5.60;;;;;;;;;;5066381;28;20112;-73
2023/06/08 14:11:55;;;;;;;8.10;4.10;;;;;;;;;;5034108;28;20481;-71
2023/06/08 14:14:40;;;;;;;8.52;4.80;;;;;;;;;;5037017;28;20025;-70
2023/06/08 14:17:26;;;;;;;12.23;5.10;;;;;;;;;;5028888;28;20488;-70
2023/06/08 14:20:12;;;;;;;11.63;5.63;;;;;;;;;;5048012;28;20043;-71
2023/06/08 14:22:57;;;;;;;11.82;5.00;;;;;;;;;;5054659;28;20044;-71
2023/06/08 14:25:42;;;;;;;7.45;4.20;;;;;;;;;;5045510;28;20040;-72
2023/06/08 14:28:28;;;;;;;7.93;4.00;;;;;;;;;;5030118;28;20368;-71
2023/06/08 14:31:13;;;;;;;8.75;4.70;;;;;;;;;;5037137;28;20055;-71
2023/06/08 14:33:58;;;;;;;9.57;4.05;;;;;;;;;;5050174;28;20029;-71
2023/06/08 14:36:43;;;;;;;6.60;3.80;;;;;;;;;;5039211;28;20127;-74
2023/06/08 14:39:30;;;;;;;5.63;4.13;;;;;;;;;;5027313;28;20464;-68
2023/06/08 14:42:15;;;;;;;6.90;4.07;;;;;;;;;;5034195;28;20132;-64
2023/06/08 14:45:00;;;;;;;8.60;4.78;;;;;;;;;;5040917;28;20405;-68
2023/06/08 14:47:45;;;;;;;8.25;3.90;;;;;;;;;;5038024;28;20025;-66
2023/06/08 14:50:31;;;;;;;10.23;4.38;;;;;;;;;;5043513;28;20427;-65
2023/06/08 14:53:16;;;;;;;6.53;3.95;;;;;;;;;;5030347;28;20512;-65
2023/06/08 14:56:01;;;;;;;4.65;3.20;;;;;;;;;;5037101;28;20040;-70
2023/06/08 14:58:46;;;;;;;9.27;4.35;;;;;;;;;;5048984;28;20529;-69
2023/06/08 15:01:32;;;;;;;4.68;3.17;;;;;;;;;;5045410;28;20239;-70
2023/06/08 15:04:17;;;;;;;7.50;3.60;;;;;;;;;;5031130;28;20029;-70
2023/06/08 15:07:02;;;;;;;7.65;4.53;;;;;;;;;;5038419;28;20276;-70
2023/06/08 15:09:47;;;;;;;6.70;3.85;;;;;;;;;;5040993;28;20037;-71
2023/06/08 15:12:33;;;;;;;6.13;3.78;;;;;;;;;;5037536;28;20088;-74
2023/06/08 15:15:25;;;;;;;9.00;4.13;;;;;;;;;;5086092;27;20504;-72
2023/06/08 15:18:10;;;;;;;8.70;3.90;;;;;;;;;;5084061;28;20054;-70
2023/06/08 15:20:55;;;;;;;6.00;3.75;;;;;;;;;;5085675;28;20208;-71
2023/06/08 15:23:41;;;;;;;5.20;3.15;;;;;;;;;;5087747;28;20058;-70
2023/06/08 15:26:26;;;;;;;8.05;3.70;;;;;;;;;;5084396;28;20430;-71
2023/06/08 15:29:12;;;;;;;7.22;3.83;;;;;;;;;;5081172;28;20036;-69
2023/06/08 15:31:57;;;;;;;6.70;3.95;;;;;;;;;;5084621;28;20044;-76
2023/06/08 15:34:42;;;;;;;6.55;3.75;;;;;;;;;;5070529;28;20062;-68
2023/06/08 15:37:29;;;;;;;5.32;3.80;;;;;;;;;;5084603;28;20074;-68
2023/06/08 15:40:18;;;;;;;7.20;3.75;;;;;;;;;;5079151;28;20179;-67
2023/06/08 15:43:03;;;;;;;6.93;3.67;;;;;;;;;;5074864;28;20024;-70
2023/06/08 15:45:48;;;;;;;6.95;3.67;;;;;;;;;;5082804;28;20039;-67
2023/06/08 15:48:34;;;;;;;10.93;4.07;;;;;;;;;;5079665;28;20157;-65
2023/06/08 15:51:25;;;;;;;8.23;4.00;;;;;;;;;;5083580;28;20020;-71
2023/06/08 15:54:10;;;;;;;6.18;4.00;;;;;;;;;;5084006;28;20039;-71
2023/06/08 15:56:56;;;;;;;8.35;3.95;;;;;;;;;;5081901;28;20025;-71
2023/06/08 15:59:41;;;;;;;6.72;4.25;;;;;;;;;;5079267;28;20035;-70
2023/06/08 16:02:26;;;;;;;6.28;4.68;;;;;;;;;;5079975;28;20039;-70
2023/06/08 16:05:11;;;;;;;7.35;4.47;;;;;;;;;;5072191;28;20166;-71
2023/06/08 16:07:57;;;;;;;6.38;4.03;;;;;;;;;;5079191;28;20273;-75
2023/06/08 16:10:42;;;;;;;7.05;4.40;;;;;;;;;;5081735;28;20460;-75
2023/06/08 16:13:28;;;;;;;8.43;4.68;;;;;;;;;;5080654;28;20059;-75
2023/06/08 16:16:13;;;;;;;9.23;4.75;;;;;;;;;;5089590;28;20527;-77
2023/06/08 16:18:58;;;;;;;6.88;4.55;;;;;;;;;;5082318;28;20063;-77
2023/06/08 16:21:46;;;;;;;7.70;4.47;;;;;;;;;;5073547;28;20204;-76
2023/06/08 16:24:31;;;;;;;8.15;4.68;;;;;;;;;;5082194;28;20274;-79
2023/06/08 16:27:16;;;;;;;7.03;4.22;;;;;;;;;;5079526;28;20020;-75
2023/06/08 16:30:02;;;;;;;8.95;4.65;;;;;;;;;;5069573;28;20029;-66
2023/06/08 16:32:47;;;;;;;6.28;4.45;;;;;;;;;;5062839;28;20115;-67
2023/06/08 16:35:33;;;;;;;7.55;4.47;;;;;;;;;;5069813;28;20043;-67